createdAt,value
2022-08-16T00:00:44.766Z,0.00
2022-08-16T00:01:42.794Z,0.00
2022-08-16T00:02:42.831Z,0.00
2022-08-16T00:03:42.716Z,0.00
2022-08-16T00:04:42.712Z,0.00
2022-08-16T00:05:48.394Z,0.00
2022-08-16T00:06:44.013Z,0.00
2022-08-16T00:07:42.699Z,0.00
2022-08-16T00:08:42.684Z,0.00
2022-08-16T00:09:42.682Z,0.00
2022-08-16T00:10:42.709Z,0.00
2022-08-16T00:11:42.663Z,0.00
2022-08-16T00:12:42.695Z,0.00
2022-08-16T00:13:42.642Z,0.00
2022-08-16T00:14:42.635Z,0.00
2022-08-16T00:15:51.918Z,0.00
2022-08-16T00:17:05.423Z,0.00
2022-08-16T00:17:56.246Z,0.00
2022-08-16T00:18:43.602Z,0.00
2022-08-16T00:19:42.592Z,0.00
2022-08-16T00:20:42.586Z,0.00
2022-08-16T00:21:42.606Z,0.00
2022-08-16T00:22:43.576Z,0.00
2022-08-16T00:23:46.095Z,0.00
2022-08-16T00:24:44.542Z,0.00
2022-08-16T00:26:34.646Z,0.00
2022-08-16T00:26:45.111Z,0.00
2022-08-16T00:27:42.531Z,0.00
2022-08-16T00:28:42.529Z,0.00
2022-08-16T00:29:42.518Z,0.00
2022-08-16T00:30:42.509Z,0.00
2022-08-16T00:31:59.841Z,0.00
2022-08-16T00:32:43.494Z,0.00
2022-08-16T00:33:42.484Z,0.00
2022-08-16T00:34:53.015Z,0.00
2022-08-16T00:35:43.471Z,0.00
2022-08-16T00:36:47.198Z,0.00
2022-08-16T00:37:58.445Z,0.00
2022-08-16T00:38:43.516Z,0.00
2022-08-16T00:39:42.443Z,0.00
2022-08-16T00:40:43.573Z,0.00
2022-08-16T00:41:43.443Z,0.00
2022-08-16T00:42:42.445Z,0.00
2022-08-16T00:43:43.632Z,0.00
2022-08-16T00:44:42.393Z,0.00
2022-08-16T00:45:58.017Z,0.00
2022-08-16T00:46:52.588Z,0.00
2022-08-16T00:47:49.572Z,0.00
2022-08-16T00:48:44.341Z,0.00
2022-08-16T00:49:44.589Z,0.00
2022-08-16T00:50:42.344Z,0.00
2022-08-16T00:51:42.359Z,0.00
2022-08-16T00:52:50.420Z,0.00
2022-08-16T00:53:43.327Z,0.00
2022-08-16T00:54:42.352Z,0.00
2022-08-16T00:55:42.306Z,0.00
2022-08-16T00:56:58.437Z,0.00
2022-08-16T00:57:59.572Z,0.00
2022-08-16T00:58:43.572Z,0.00
2022-08-16T00:59:54.753Z,0.00
2022-08-16T01:00:43.310Z,0.00
2022-08-16T01:01:42.279Z,0.00
2022-08-16T01:02:42.246Z,0.00
2022-08-16T01:03:42.241Z,0.00
2022-08-16T01:04:42.232Z,0.00
2022-08-16T01:05:43.226Z,0.00
2022-08-16T01:06:49.505Z,0.00
2022-08-16T01:07:50.849Z,0.00
2022-08-16T01:08:43.200Z,0.00
2022-08-16T01:09:42.928Z,0.00
2022-08-16T01:10:42.185Z,0.00
2022-08-16T01:11:54.073Z,0.00
2022-08-16T01:12:43.216Z,0.00
2022-08-16T01:13:42.165Z,0.00
2022-08-16T01:14:43.558Z,0.00
2022-08-16T01:15:43.369Z,0.00
2022-08-16T01:16:42.161Z,0.00
2022-08-16T01:17:43.129Z,0.00
2022-08-16T01:18:42.128Z,0.00
2022-08-16T01:19:42.109Z,0.00
2022-08-16T01:20:42.103Z,0.00
2022-08-16T01:21:42.122Z,0.00
2022-08-16T01:22:48.400Z,0.00
2022-08-16T01:23:57.984Z,0.00
2022-08-16T01:24:53.276Z,0.00
2022-08-16T01:25:44.160Z,0.00
2022-08-16T01:26:42.084Z,0.00
2022-08-16T01:27:42.045Z,0.00
2022-08-16T01:28:45.565Z,0.00
2022-08-16T01:29:57.764Z,0.00
2022-08-16T01:30:50.449Z,0.00
2022-08-16T01:31:43.362Z,0.00
2022-08-16T01:32:42.049Z,0.00
2022-08-16T01:33:44.669Z,0.00
2022-08-16T01:34:47.429Z,0.00
2022-08-16T01:35:42.991Z,0.00
2022-08-16T01:36:41.979Z,0.00
2022-08-16T01:37:42.491Z,0.00
2022-08-16T01:38:49.330Z,0.00
2022-08-16T01:39:42.972Z,0.00
2022-08-16T01:40:41.947Z,0.00
2022-08-16T01:41:44.131Z,0.00
2022-08-16T01:42:48.008Z,0.00
2022-08-16T01:43:42.921Z,0.00
2022-08-16T01:44:41.918Z,0.00
2022-08-16T01:45:41.913Z,0.00
2022-08-16T01:46:41.901Z,0.00
2022-08-16T01:47:50.870Z,0.00
2022-08-16T01:48:42.885Z,0.00
2022-08-16T01:49:43.645Z,0.00
2022-08-16T01:51:09.519Z,0.00
2022-08-16T01:51:43.858Z,0.00
2022-08-16T01:52:41.880Z,0.00
2022-08-16T01:53:42.066Z,0.00
2022-08-16T01:54:41.840Z,0.00
2022-08-16T01:55:41.832Z,0.00
2022-08-16T01:56:41.821Z,0.00
2022-08-16T01:57:53.500Z,0.00
2022-08-16T01:58:48.077Z,0.00
2022-08-16T01:59:42.797Z,0.00
2022-08-16T02:00:41.787Z,0.00
2022-08-16T02:01:41.847Z,0.00
2022-08-16T02:02:42.495Z,0.00
2022-08-16T02:03:41.766Z,0.00
2022-08-16T02:04:49.587Z,0.00
2022-08-16T02:05:51.797Z,0.00
2022-08-16T02:06:46.911Z,0.00
2022-08-16T02:07:44.067Z,0.00
2022-08-16T02:08:41.727Z,0.00
2022-08-16T02:09:41.726Z,0.00
2022-08-16T02:10:41.717Z,0.00
2022-08-16T02:11:48.174Z,0.00
2022-08-16T02:12:51.096Z,0.00
2022-08-16T02:13:42.689Z,0.00
2022-08-16T02:14:41.682Z,0.00
2022-08-16T02:15:43.882Z,0.00
2022-08-16T02:16:41.667Z,0.00
2022-08-16T02:17:41.687Z,0.00
2022-08-16T02:18:41.651Z,0.00
2022-08-16T02:19:59.232Z,0.00
2022-08-16T02:20:45.468Z,0.00
2022-08-16T02:22:07.771Z,0.00
2022-08-16T02:22:42.647Z,0.00
2022-08-16T02:23:41.614Z,0.00
2022-08-16T02:24:45.761Z,0.00
2022-08-16T02:25:52.650Z,0.00
2022-08-16T02:26:42.589Z,0.00
2022-08-16T02:27:41.581Z,0.00
2022-08-16T02:28:45.282Z,0.00
2022-08-16T02:29:42.563Z,0.00
2022-08-16T02:30:43.347Z,0.00
2022-08-16T02:32:03.986Z,0.00
2022-08-16T02:32:50.007Z,0.00
2022-08-16T02:33:43.864Z,0.00
2022-08-16T02:34:42.526Z,0.00
2022-08-16T02:35:49.943Z,0.00
2022-08-16T02:36:49.777Z,0.00
2022-08-16T02:37:52.713Z,0.00
2022-08-16T02:38:42.522Z,0.00
2022-08-16T02:39:41.595Z,0.00
2022-08-16T02:40:42.180Z,0.00
2022-08-16T02:41:41.477Z,0.00
2022-08-16T02:42:41.468Z,0.00
2022-08-16T02:43:41.486Z,0.00
2022-08-16T02:44:42.372Z,0.00
2022-08-16T02:45:41.471Z,0.00
2022-08-16T02:46:50.451Z,0.00
2022-08-16T02:48:00.145Z,0.00
2022-08-16T02:48:47.515Z,0.00
2022-08-16T02:49:59.360Z,0.00
2022-08-16T02:50:55.493Z,0.00
2022-08-16T02:51:42.401Z,0.00
2022-08-16T02:52:43.736Z,0.00
2022-08-16T02:53:41.418Z,0.00
2022-08-16T02:54:41.375Z,0.00
2022-08-16T02:55:41.655Z,0.00
2022-08-16T02:56:41.359Z,0.00
2022-08-16T02:57:54.275Z,0.00
2022-08-16T02:58:42.371Z,0.00
2022-08-16T02:59:41.597Z,0.00
2022-08-16T03:00:45.609Z,0.00
2022-08-16T03:01:42.353Z,0.00
2022-08-16T03:02:41.315Z,0.00
2022-08-16T03:04:41.208Z,0.00
2022-08-16T03:04:52.225Z,0.00
2022-08-16T03:05:42.412Z,0.00
2022-08-16T03:06:41.843Z,0.00
2022-08-16T03:07:41.278Z,0.00
2022-08-16T03:08:50.141Z,0.00
2022-08-16T03:09:44.622Z,0.00
2022-08-16T03:10:41.250Z,0.00
2022-08-16T03:11:41.243Z,0.00
2022-08-16T03:12:55.924Z,0.00
2022-08-16T03:13:42.257Z,0.00
2022-08-16T03:14:41.224Z,0.00
2022-08-16T03:15:41.214Z,0.00
2022-08-16T03:16:58.571Z,0.00
2022-08-16T03:17:53.830Z,0.00
2022-08-16T03:18:42.186Z,0.00
2022-08-16T03:19:47.220Z,0.00
2022-08-16T03:20:42.177Z,0.00
2022-08-16T03:21:42.168Z,0.00
2022-08-16T03:22:45.368Z,0.00
2022-08-16T03:23:41.153Z,0.00
2022-08-16T03:24:41.170Z,0.00
2022-08-16T03:25:44.650Z,4.00
2022-08-16T03:26:42.131Z,4.00
2022-08-16T03:27:41.250Z,4.00
2022-08-16T03:28:41.123Z,0.00
2022-08-16T03:29:54.255Z,4.00
2022-08-16T03:30:42.098Z,4.00
2022-08-16T03:31:41.200Z,4.00
2022-08-16T03:32:41.082Z,4.00
2022-08-16T03:33:41.083Z,8.00
2022-08-16T03:34:41.092Z,8.00
2022-08-16T03:35:41.068Z,8.00
2022-08-16T03:36:41.052Z,12.00
2022-08-16T03:37:41.048Z,12.00
2022-08-16T03:38:42.036Z,12.00
2022-08-16T03:39:42.751Z,16.00
2022-08-16T03:40:41.041Z,16.00
2022-08-16T03:41:49.876Z,20.00
2022-08-16T03:43:18.941Z,24.00
2022-08-16T03:43:52.004Z,28.00
2022-08-16T03:44:44.516Z,32.00
2022-08-16T03:45:41.984Z,36.00
2022-08-16T03:46:48.269Z,44.00
2022-08-16T03:47:41.973Z,52.00
2022-08-16T03:48:41.328Z,60.00
2022-08-16T03:49:40.980Z,68.00
2022-08-16T03:50:40.951Z,80.00
2022-08-16T03:51:41.945Z,92.00
2022-08-16T03:52:43.742Z,100.00
2022-08-16T03:53:40.925Z,116.00
2022-08-16T03:54:53.051Z,128.00
2022-08-16T03:55:45.758Z,148.00
2022-08-16T03:56:56.422Z,164.00
2022-08-16T03:57:41.897Z,180.00
2022-08-16T03:58:41.886Z,204.00
2022-08-16T03:59:43.569Z,228.00
2022-08-16T04:00:41.482Z,248.00
2022-08-16T04:01:40.962Z,272.00
2022-08-16T04:02:40.864Z,304.00
2022-08-16T04:03:40.851Z,328.00
2022-08-16T04:04:40.876Z,364.00
2022-08-16T04:05:40.839Z,392.00
2022-08-16T04:06:40.829Z,424.00
2022-08-16T04:07:40.821Z,464.00
2022-08-16T04:08:40.818Z,500.00
2022-08-16T04:09:40.812Z,544.00
2022-08-16T04:10:40.862Z,584.00
2022-08-16T04:11:40.797Z,632.00
2022-08-16T04:12:53.350Z,680.00
2022-08-16T04:13:59.198Z,736.00
2022-08-16T04:14:46.484Z,788.00
2022-08-16T04:15:41.787Z,844.00
2022-08-16T04:16:40.754Z,908.00
2022-08-16T04:17:40.743Z,972.00
2022-08-16T04:18:40.736Z,1048.00
2022-08-16T04:19:45.605Z,1132.00
2022-08-16T04:20:41.748Z,1224.00
2022-08-16T04:21:47.089Z,1320.00
2022-08-16T04:22:41.701Z,1424.00
2022-08-16T04:23:40.698Z,1524.00
2022-08-16T04:24:40.688Z,1632.00
2022-08-16T04:25:40.709Z,1744.00
2022-08-16T04:26:45.830Z,1856.00
2022-08-16T04:27:41.666Z,1980.00
2022-08-16T04:28:53.576Z,2104.00
2022-08-16T04:29:44.131Z,2236.00
2022-08-16T04:30:40.645Z,2560.00
2022-08-16T04:31:40.655Z,3172.00
2022-08-16T04:32:40.661Z,3780.00
2022-08-16T04:33:51.123Z,4204.00
2022-08-16T04:34:41.642Z,4588.00
2022-08-16T04:35:40.612Z,4976.00
2022-08-16T04:36:40.599Z,5388.00
2022-08-16T04:37:42.291Z,5932.00
2022-08-16T04:38:40.585Z,6584.00
2022-08-16T04:39:46.691Z,7328.00
2022-08-16T04:40:41.632Z,7872.00
2022-08-16T04:41:40.563Z,8416.00
2022-08-16T04:42:40.553Z,9152.00
2022-08-16T04:43:43.744Z,9600.00
2022-08-16T04:44:53.210Z,9824.00
2022-08-16T04:45:41.553Z,10112.00
2022-08-16T04:47:01.128Z,11040.00
2022-08-16T04:47:41.511Z,11904.00
2022-08-16T04:48:40.510Z,12800.00
2022-08-16T04:49:44.136Z,13824.00
2022-08-16T04:50:43.460Z,14528.00
2022-08-16T04:51:41.483Z,15200.00
2022-08-16T04:52:40.485Z,16064.00
2022-08-16T04:53:41.420Z,16800.00
2022-08-16T04:54:40.488Z,17696.00
2022-08-16T04:55:40.453Z,18848.00
2022-08-16T04:56:43.026Z,19456.00
2022-08-16T04:57:41.648Z,19232.00
2022-08-16T04:58:46.130Z,19360.00
2022-08-16T04:59:41.981Z,19424.00
2022-08-16T05:00:40.417Z,19104.00
2022-08-16T05:01:58.023Z,14528.00
2022-08-16T05:02:42.875Z,11536.00
2022-08-16T05:03:41.731Z,12800.00
2022-08-16T05:04:41.420Z,7700.00
2022-08-16T05:05:45.152Z,7352.00
2022-08-16T05:06:44.850Z,7068.00
2022-08-16T05:07:40.366Z,7328.00
2022-08-16T05:08:47.178Z,7924.00
2022-08-16T05:09:42.799Z,10860.00
2022-08-16T05:10:41.368Z,15680.00
2022-08-16T05:11:40.342Z,30944.00
2022-08-16T05:12:40.328Z,33280.00
2022-08-16T05:13:42.341Z,35616.00
2022-08-16T05:14:45.965Z,38176.00
2022-08-16T05:15:41.330Z,40160.00
2022-08-16T05:16:40.300Z,41952.00
2022-08-16T05:17:40.287Z,43136.00
2022-08-16T05:18:40.275Z,43072.00
2022-08-16T05:19:40.269Z,43808.00
2022-08-16T05:21:01.453Z,45664.00
2022-08-16T05:21:41.254Z,46880.00
2022-08-16T05:22:40.264Z,48864.00
2022-08-16T05:23:40.240Z,49376.00
2022-08-16T05:24:40.229Z,50368.00
2022-08-16T05:25:47.741Z,51296.00
2022-08-16T05:26:43.521Z,52032.00
2022-08-16T05:27:43.117Z,52640.00
2022-08-16T05:28:40.197Z,52128.00
2022-08-16T05:29:59.404Z,52864.00
2022-08-16T05:30:41.182Z,53952.00
2022-08-16T05:31:44.304Z,55168.00
2022-08-16T05:32:45.841Z,56416.00
2022-08-16T05:33:42.114Z,57024.00
2022-08-16T05:34:40.183Z,58016.00
2022-08-16T05:35:40.146Z,59328.00
2022-08-16T05:36:40.139Z,58944.00
2022-08-16T05:37:40.199Z,58496.00
2022-08-16T05:38:40.138Z,60288.00
2022-08-16T05:39:40.858Z,62144.00
2022-08-16T05:40:40.107Z,63680.00
2022-08-16T05:41:45.494Z,64096.00
2022-08-16T05:42:41.093Z,62272.00
2022-08-16T05:43:43.622Z,59104.00
2022-08-16T05:44:41.115Z,59936.00
2022-08-16T05:45:40.074Z,63456.00
2022-08-16T05:46:43.660Z,69056.00
2022-08-16T05:47:43.254Z,72096.00
2022-08-16T05:48:40.048Z,67840.00
2022-08-16T05:49:40.255Z,67456.00
2022-08-16T05:50:41.670Z,69952.00
2022-08-16T05:51:41.751Z,62944.00
2022-08-16T05:52:40.059Z,60608.00
2022-08-16T05:53:40.012Z,64640.00
2022-08-16T05:54:46.030Z,68032.00
2022-08-16T05:55:42.021Z,68864.00
2022-08-16T05:56:40.004Z,66944.00
2022-08-16T05:57:39.987Z,64576.00
2022-08-16T05:58:39.982Z,63040.00
2022-08-16T05:59:39.974Z,63104.00
2022-08-16T06:00:39.993Z,64960.00
2022-08-16T06:01:39.994Z,65888.00
2022-08-16T06:02:40.046Z,65824.00
2022-08-16T06:03:39.945Z,65280.00
2022-08-16T06:04:42.410Z,64416.00
2022-08-16T06:05:41.411Z,64992.00
2022-08-16T06:06:40.122Z,66816.00
2022-08-16T06:07:39.914Z,65824.00
2022-08-16T06:08:44.785Z,65984.00
2022-08-16T06:09:43.247Z,65504.00
2022-08-16T06:10:39.923Z,64704.00
2022-08-16T06:11:43.192Z,65984.00
2022-08-16T06:12:39.886Z,66656.00
2022-08-16T06:13:42.070Z,67072.00
2022-08-16T06:14:40.173Z,66752.00
2022-08-16T06:15:41.531Z,66112.00
2022-08-16T06:16:39.856Z,66720.00
2022-08-16T06:17:41.577Z,67104.00
2022-08-16T06:18:39.853Z,67616.00
2022-08-16T06:19:44.089Z,66848.00
2022-08-16T06:20:55.138Z,66688.00
2022-08-16T06:21:40.827Z,66400.00
2022-08-16T06:22:39.833Z,66848.00
2022-08-16T06:23:39.814Z,67200.00
2022-08-16T06:24:53.345Z,66624.00
2022-08-16T06:25:41.853Z,67264.00
2022-08-16T06:26:44.569Z,67072.00
2022-08-16T06:27:41.789Z,66944.00
2022-08-16T06:28:40.780Z,66080.00
2022-08-16T06:29:39.773Z,65856.00
2022-08-16T06:30:43.774Z,64384.00
2022-08-16T06:31:46.883Z,63776.00
2022-08-16T06:32:43.120Z,65056.00
2022-08-16T06:33:42.410Z,68160.00
2022-08-16T06:34:57.462Z,68288.00
2022-08-16T06:35:41.640Z,68416.00
2022-08-16T06:36:39.729Z,70432.00
2022-08-16T06:37:39.725Z,70752.00
2022-08-16T06:38:39.723Z,70688.00
2022-08-16T06:39:49.363Z,69376.00
2022-08-16T06:40:40.743Z,68832.00
2022-08-16T06:41:40.704Z,68352.00
2022-08-16T06:42:47.856Z,70272.00
2022-08-16T06:43:40.691Z,72416.00
2022-08-16T06:44:39.743Z,70944.00
2022-08-16T06:45:43.427Z,72448.00
2022-08-16T06:46:39.678Z,71776.00
2022-08-16T06:47:53.523Z,71456.00
2022-08-16T06:48:42.931Z,73088.00
2022-08-16T06:49:39.664Z,74784.00
2022-08-16T06:50:39.845Z,75680.00
2022-08-16T06:51:45.290Z,75968.00
2022-08-16T06:52:57.960Z,77376.00
2022-08-16T06:53:40.637Z,78240.00
2022-08-16T06:54:39.639Z,77952.00
2022-08-16T06:55:39.798Z,78240.00
2022-08-16T06:56:39.621Z,78592.00
2022-08-16T06:57:40.622Z,80544.00
2022-08-16T06:58:39.864Z,82240.00
2022-08-16T06:59:52.390Z,82784.00
2022-08-16T07:00:43.056Z,84832.00
2022-08-16T07:01:43.470Z,86144.00
2022-08-16T07:02:51.837Z,87072.00
2022-08-16T07:03:55.012Z,86944.00
2022-08-16T07:04:40.587Z,87680.00
2022-08-16T07:05:41.354Z,87392.00
2022-08-16T07:06:39.575Z,87808.00
2022-08-16T07:07:39.576Z,88768.00
2022-08-16T07:08:39.569Z,89888.00
2022-08-16T07:09:39.561Z,91072.00
2022-08-16T07:10:41.565Z,91904.00
2022-08-16T07:11:48.254Z,92128.00
2022-08-16T07:12:47.436Z,92640.00
2022-08-16T07:14:00.252Z,92064.00
2022-08-16T07:14:41.539Z,92640.00
2022-08-16T07:15:50.782Z,92832.00
2022-08-16T07:16:40.517Z,91552.00
2022-08-16T07:17:40.521Z,92448.00
2022-08-16T07:18:39.518Z,94048.00
2022-08-16T07:20:03.106Z,96256.00
2022-08-16T07:20:47.243Z,95968.00
2022-08-16T07:21:46.445Z,95328.00
2022-08-16T07:22:40.483Z,95520.00
2022-08-16T07:23:40.487Z,94784.00
2022-08-16T07:24:45.867Z,96672.00
2022-08-16T07:25:40.780Z,99104.00
2022-08-16T07:26:39.473Z,99520.00
2022-08-16T07:27:39.468Z,98848.00
2022-08-16T07:28:39.471Z,99232.00
2022-08-16T07:29:40.223Z,98016.00
2022-08-16T07:30:46.441Z,97088.00
2022-08-16T07:31:41.448Z,96480.00
2022-08-16T07:32:39.445Z,96608.00
2022-08-16T07:33:51.765Z,94592.00
2022-08-16T07:34:48.579Z,95680.00
2022-08-16T07:35:44.460Z,99392.00
2022-08-16T07:36:40.427Z,100352.00
2022-08-16T07:37:40.090Z,98880.00
2022-08-16T07:38:39.417Z,100832.00
2022-08-16T07:39:43.104Z,100096.00
2022-08-16T07:41:01.015Z,99296.00
2022-08-16T07:41:41.412Z,100384.00
2022-08-16T07:42:39.399Z,99456.00
2022-08-16T07:43:40.295Z,97856.00
2022-08-16T07:44:50.348Z,98240.00
2022-08-16T07:45:42.808Z,100352.00
2022-08-16T07:46:40.307Z,98624.00
2022-08-16T07:47:41.937Z,100256.00
2022-08-16T07:48:39.374Z,99456.00
2022-08-16T07:49:53.082Z,99552.00
2022-08-16T07:50:56.150Z,99552.00
2022-08-16T07:51:40.352Z,98368.00
2022-08-16T07:52:39.351Z,100256.00
2022-08-16T07:53:43.410Z,98144.00
2022-08-16T07:54:39.441Z,96000.00
2022-08-16T07:55:47.893Z,95264.00
2022-08-16T07:56:40.352Z,94688.00
2022-08-16T07:57:58.031Z,94848.00
2022-08-16T07:58:40.319Z,90176.00
2022-08-16T07:59:45.847Z,84864.00
2022-08-16T08:00:40.333Z,81152.00
2022-08-16T08:01:39.330Z,72416.00
2022-08-16T08:02:39.299Z,52896.00
2022-08-16T08:03:42.538Z,40960.00
2022-08-16T08:04:40.316Z,39104.00
2022-08-16T08:05:39.284Z,38816.00
2022-08-16T08:06:39.299Z,38752.00
2022-08-16T08:07:40.273Z,38528.00
2022-08-16T08:08:50.360Z,38688.00
2022-08-16T08:09:43.276Z,39584.00
2022-08-16T08:10:39.261Z,40672.00
2022-08-16T08:11:39.281Z,41184.00
2022-08-16T08:12:39.251Z,41728.00
2022-08-16T08:13:42.666Z,40832.00
2022-08-16T08:14:39.231Z,40064.00
2022-08-16T08:15:40.226Z,38976.00
2022-08-16T08:16:45.418Z,37792.00
2022-08-16T08:17:43.153Z,37568.00
2022-08-16T08:18:39.212Z,37536.00
2022-08-16T08:19:40.359Z,36864.00
2022-08-16T08:20:39.201Z,36096.00
2022-08-16T08:22:01.427Z,35712.00
2022-08-16T08:22:40.194Z,36160.00
2022-08-16T08:23:42.552Z,35936.00
2022-08-16T08:24:39.178Z,35232.00
2022-08-16T08:25:54.587Z,34400.00
2022-08-16T08:26:40.199Z,33664.00
2022-08-16T08:27:39.165Z,33632.00
2022-08-16T08:28:40.155Z,33280.00
2022-08-16T08:29:40.368Z,32416.00
2022-08-16T08:30:52.070Z,31936.00
2022-08-16T08:31:40.166Z,31712.00
2022-08-16T08:32:57.426Z,31392.00
2022-08-16T08:33:43.791Z,31296.00
2022-08-16T08:34:40.140Z,30720.00
2022-08-16T08:35:39.122Z,30016.00
2022-08-16T08:36:39.147Z,30048.00
2022-08-16T08:37:54.143Z,29984.00
2022-08-16T08:38:45.349Z,30656.00
2022-08-16T08:39:55.115Z,31040.00
2022-08-16T08:40:40.094Z,30560.00
2022-08-16T08:41:39.115Z,29792.00
2022-08-16T08:42:39.084Z,29952.00
2022-08-16T08:43:41.863Z,30144.00
2022-08-16T08:44:39.076Z,30112.00
2022-08-16T08:45:48.840Z,30528.00
2022-08-16T08:46:41.090Z,30624.00
2022-08-16T08:47:39.055Z,30624.00
2022-08-16T08:48:39.054Z,31296.00
2022-08-16T08:49:54.908Z,32256.00
2022-08-16T08:50:40.042Z,32032.00
2022-08-16T08:51:41.278Z,32064.00
2022-08-16T08:52:39.030Z,31776.00
2022-08-16T08:53:39.024Z,31360.00
2022-08-16T08:54:39.018Z,31424.00
2022-08-16T08:55:39.011Z,31872.00
2022-08-16T08:56:45.697Z,32576.00
2022-08-16T08:57:40.741Z,34080.00
2022-08-16T08:58:38.991Z,35776.00
2022-08-16T08:59:40.812Z,37216.00
2022-08-16T09:00:50.901Z,39616.00
2022-08-16T09:01:43.013Z,41824.00
2022-08-16T09:02:39.971Z,44544.00
2022-08-16T09:03:38.993Z,47104.00
2022-08-16T09:04:38.960Z,49696.00
2022-08-16T09:05:38.958Z,52224.00
2022-08-16T09:06:43.081Z,55584.00
2022-08-16T09:08:00.870Z,56480.00
2022-08-16T09:08:39.941Z,53856.00
2022-08-16T09:09:41.301Z,50720.00
2022-08-16T09:10:39.482Z,48480.00
2022-08-16T09:11:40.953Z,43072.00
2022-08-16T09:12:38.943Z,36064.00
2022-08-16T09:13:38.915Z,31712.00
2022-08-16T09:14:49.508Z,29408.00
2022-08-16T09:15:40.008Z,27616.00
2022-08-16T09:17:03.156Z,26272.00
2022-08-16T09:17:55.018Z,25280.00
2022-08-16T09:18:40.956Z,24896.00
2022-08-16T09:19:40.854Z,24288.00
2022-08-16T09:20:59.526Z,23488.00
2022-08-16T09:21:39.899Z,22112.00
2022-08-16T09:22:38.892Z,21792.00
2022-08-16T09:23:38.858Z,21440.00
2022-08-16T09:24:52.996Z,20800.00
2022-08-16T09:25:39.846Z,20352.00
2022-08-16T09:26:43.927Z,17728.00
2022-08-16T09:27:57.003Z,10504.00
2022-08-16T09:29:16.910Z,19264.00
2022-08-16T09:29:45.318Z,18592.00
2022-08-16T09:30:43.877Z,18592.00
2022-08-16T09:31:41.347Z,18528.00
2022-08-16T09:32:38.829Z,18272.00
2022-08-16T09:33:39.838Z,17984.00
2022-08-16T09:34:38.794Z,17760.00
2022-08-16T09:35:39.397Z,17472.00
2022-08-16T09:36:45.963Z,17152.00
2022-08-16T09:37:39.799Z,16960.00
2022-08-16T09:38:38.770Z,16364.00
2022-08-16T09:39:41.454Z,15488.00
2022-08-16T09:40:42.426Z,15064.00
2022-08-16T09:41:38.755Z,14540.00
2022-08-16T09:43:05.261Z,9936.00
2022-08-16T09:43:58.785Z,12940.00
2022-08-16T09:45:12.988Z,9772.00
2022-08-16T09:45:39.733Z,10040.00
2022-08-16T09:46:49.055Z,11380.00
2022-08-16T09:47:56.268Z,13060.00
2022-08-16T09:48:44.832Z,12964.00
2022-08-16T09:49:41.063Z,12756.00
2022-08-16T09:50:39.882Z,12388.00
2022-08-16T09:51:38.690Z,12300.00
2022-08-16T09:52:42.669Z,12208.00
2022-08-16T09:53:40.675Z,12032.00
2022-08-16T09:54:38.671Z,11784.00
2022-08-16T09:55:44.278Z,11572.00
2022-08-16T09:56:39.670Z,11188.00
2022-08-16T09:57:39.674Z,11104.00
2022-08-16T09:59:03.861Z,11036.00
2022-08-16T09:59:41.967Z,11184.00
2022-08-16T10:00:44.060Z,11140.00
2022-08-16T10:01:43.468Z,10992.00
2022-08-16T10:02:44.105Z,10912.00
2022-08-16T10:03:38.665Z,10888.00
2022-08-16T10:04:52.997Z,10916.00
2022-08-16T10:05:40.598Z,10836.00
2022-08-16T10:06:38.585Z,10704.00
2022-08-16T10:07:45.182Z,10720.00
2022-08-16T10:09:04.391Z,10712.00
2022-08-16T10:09:45.062Z,10800.00
2022-08-16T10:10:39.556Z,10928.00
2022-08-16T10:11:49.931Z,11132.00
2022-08-16T10:12:42.973Z,11236.00
2022-08-16T10:13:38.539Z,11144.00
2022-08-16T10:14:38.536Z,10876.00
2022-08-16T10:15:38.527Z,10704.00
2022-08-16T10:16:38.846Z,10900.00
2022-08-16T10:17:38.542Z,11028.00
2022-08-16T10:18:56.491Z,11116.00
2022-08-16T10:19:39.499Z,11016.00
2022-08-16T10:20:38.493Z,10896.00
2022-08-16T10:21:38.485Z,10924.00
2022-08-16T10:22:38.508Z,10928.00
2022-08-16T10:23:38.473Z,11048.00
2022-08-16T10:24:38.461Z,11096.00
2022-08-16T10:27:16.307Z,11156.00
2022-08-16T10:27:17.319Z,10904.00
2022-08-16T10:27:47.064Z,10700.00
2022-08-16T10:28:40.326Z,10600.00
2022-08-16T10:30:00.627Z,10632.00
2022-08-16T10:30:40.159Z,10768.00
2022-08-16T10:31:44.214Z,10852.00
2022-08-16T10:32:39.533Z,10888.00
2022-08-16T10:33:40.334Z,10668.00
2022-08-16T10:34:38.404Z,10640.00
2022-08-16T10:35:46.526Z,10716.00
2022-08-16T10:36:39.881Z,10720.00
2022-08-16T10:37:38.400Z,10420.00
2022-08-16T10:38:38.370Z,10040.00
2022-08-16T10:39:41.632Z,9876.00
2022-08-16T10:40:38.397Z,9696.00
2022-08-16T10:41:38.363Z,9564.00
2022-08-16T10:42:38.364Z,9484.00
2022-08-16T10:43:38.335Z,9500.00
2022-08-16T10:44:38.329Z,9676.00
2022-08-16T10:45:38.316Z,9840.00
2022-08-16T10:46:40.741Z,9888.00
2022-08-16T10:47:38.849Z,9848.00
2022-08-16T10:48:38.298Z,9768.00
2022-08-16T10:49:38.293Z,9668.00
2022-08-16T10:50:38.285Z,9596.00
2022-08-16T10:52:01.511Z,9536.00
2022-08-16T10:53:39.595Z,9392.00
2022-08-16T10:54:58.575Z,9312.00
2022-08-16T10:55:44.437Z,9220.00
2022-08-16T10:56:52.534Z,9240.00
2022-08-16T10:57:39.263Z,9340.00
2022-08-16T10:58:38.236Z,9400.00
2022-08-16T10:59:51.864Z,9384.00
2022-08-16T11:00:39.231Z,9456.00
2022-08-16T11:01:43.746Z,9620.00
2022-08-16T11:03:41.702Z,9696.00
2022-08-16T11:03:42.407Z,9672.00
2022-08-16T11:05:09.526Z,9716.00
2022-08-16T11:06:40.436Z,9888.00
2022-08-16T11:07:54.971Z,10084.00
2022-08-16T11:08:44.950Z,10204.00
2022-08-16T11:09:42.956Z,10152.00
2022-08-16T11:12:07.763Z,10060.00
2022-08-16T11:12:40.215Z,10040.00
2022-08-16T11:15:11.231Z,7092.00
2022-08-16T11:15:39.111Z,7608.00
2022-08-16T11:17:44.741Z,9008.00
2022-08-16T11:19:03.144Z,8760.00
2022-08-16T11:20:40.756Z,8612.00
2022-08-16T11:20:42.072Z,8544.00
2022-08-16T11:22:23.019Z,8520.00
2022-08-16T11:22:48.713Z,8488.00
2022-08-16T11:23:39.063Z,8448.00
2022-08-16T11:24:41.428Z,8424.00
2022-08-16T11:26:40.045Z,8376.00
2022-08-16T11:27:38.065Z,8352.00
2022-08-16T11:29:40.047Z,8248.00
2022-08-16T11:30:39.378Z,8304.00
2022-08-16T11:31:38.021Z,8324.00
2022-08-16T11:32:38.026Z,8268.00
2022-08-16T11:33:53.535Z,8224.00
2022-08-16T11:35:06.140Z,8208.00
2022-08-16T11:36:39.964Z,8144.00
2022-08-16T11:38:52.080Z,7992.00
2022-08-16T11:39:38.960Z,7992.00
2022-08-16T11:40:37.937Z,8052.00
2022-08-16T11:41:37.921Z,8108.00
2022-08-16T11:42:39.936Z,8152.00
2022-08-16T11:43:37.919Z,8168.00
2022-08-16T11:44:52.996Z,8200.00
2022-08-16T11:45:38.889Z,8224.00
2022-08-16T11:46:45.278Z,8208.00
2022-08-16T11:47:38.923Z,8284.00
2022-08-16T11:48:37.869Z,8340.00
2022-08-16T11:49:37.861Z,8324.00
2022-08-16T11:50:37.859Z,8288.00
2022-08-16T11:51:37.880Z,8252.00
2022-08-16T11:52:37.884Z,8244.00
2022-08-16T11:53:37.836Z,8288.00
2022-08-16T11:54:37.849Z,8332.00
2022-08-16T11:55:38.116Z,8400.00
2022-08-16T11:56:51.622Z,8512.00
2022-08-16T11:57:38.894Z,8664.00
2022-08-16T11:58:37.808Z,8808.00
2022-08-16T11:59:39.851Z,8888.00
2022-08-16T12:00:51.668Z,8916.00
2022-08-16T12:01:54.713Z,8856.00
2022-08-16T12:02:38.763Z,8912.00
2022-08-16T12:03:38.825Z,8988.00
2022-08-16T12:04:37.845Z,9076.00
2022-08-16T12:05:37.745Z,9124.00
2022-08-16T12:06:37.736Z,9104.00
2022-08-16T12:07:37.744Z,9012.00
2022-08-16T12:08:37.751Z,8864.00
2022-08-16T12:09:43.072Z,8808.00
2022-08-16T12:10:39.708Z,8744.00
2022-08-16T12:11:37.705Z,8656.00
2022-08-16T12:12:37.692Z,8616.00
2022-08-16T12:13:37.711Z,8664.00
2022-08-16T12:14:37.729Z,8772.00
2022-08-16T12:15:37.819Z,8916.00
2022-08-16T12:16:37.660Z,8956.00
2022-08-16T12:17:37.649Z,8952.00
2022-08-16T12:18:37.673Z,8940.00
2022-08-16T12:19:37.977Z,8908.00
2022-08-16T12:20:37.630Z,8896.00
2022-08-16T12:21:57.774Z,8900.00
2022-08-16T12:22:38.621Z,8868.00
2022-08-16T12:23:37.633Z,8832.00
2022-08-16T12:24:37.602Z,8808.00
2022-08-16T12:25:37.599Z,8792.00